Time;durP1;ratioP1;P1;durP2;ratioP2;P2;SDS_P1;SDS_P2;PMS_P1;PMS_P2;Temp;Humidity;BMP_temperature;BMP_pressure;BME280_temperature;BME280_humidity;BME280_pressure;Samples;Min_cycle;Max_cycle;Signal;HPM_P1;HPM_P2
2023/07/04 00:01:48;;;;;;;11.45;4.32;;;13.60;99.90;;;;;;7377123;19;20049;-59
2023/07/04 00:04:19;;;;;;;12.43;4.20;;;13.60;99.90;;;;;;7380679;19;20035;-59
2023/07/04 00:06:47;;;;;;;12.10;5.17;;;13.60;99.90;;;;;;7377110;19;20015;-63
2023/07/04 00:09:17;;;;;;;12.05;4.90;;;13.50;99.90;;;;;;7378259;19;20018;-63
2023/07/04 00:11:43;;;;;;;16.50;4.95;;;13.60;99.90;;;;;;7373277;19;20373;-63
2023/07/04 00:14:10;;;;;;;11.77;5.20;;;13.60;99.90;;;;;;7378444;19;20026;-63
2023/07/04 00:16:36;;;;;;;20.33;5.55;;;13.60;99.90;;;;;;7376316;19;20760;-63
2023/07/04 00:19:04;;;;;;;14.30;4.70;;;13.60;99.90;;;;;;7375409;19;20018;-63
2023/07/04 00:21:31;;;;;;;12.55;4.78;;;13.50;99.90;;;;;;7382227;19;20025;-63
2023/07/04 00:23:57;;;;;;;13.07;5.30;;;13.60;99.90;;;;;;7378927;19;20022;-63
2023/07/04 00:26:26;;;;;;;19.48;5.68;;;13.60;99.90;;;;;;7378949;19;20022;-63
2023/07/04 00:28:52;;;;;;;13.43;5.05;;;13.60;99.90;;;;;;7375473;19;20762;-63
2023/07/04 00:31:23;;;;;;;13.35;5.72;;;13.60;99.90;;;;;;7373439;19;20039;-63
2023/07/04 00:33:50;;;;;;;14.35;5.60;;;13.60;99.90;;;;;;7377871;19;20019;-63
2023/07/04 00:36:18;;;;;;;18.75;6.40;;;13.60;99.90;;;;;;7379965;19;20011;-63
2023/07/04 00:38:48;;;;;;;14.32;6.85;;;13.50;99.90;;;;;;7373422;19;20030;-64
2023/07/04 00:41:22;;;;;;;11.30;6.05;;;13.60;99.90;;;;;;7381249;19;20022;-63
2023/07/04 00:44:12;;;;;;;14.18;7.28;;;13.60;99.90;;;;;;7373316;19;20018;-59
2023/07/04 00:46:45;;;;;;;16.80;7.43;;;13.50;99.90;;;;;;7375329;19;20492;-59
2023/07/04 00:49:18;;;;;;;15.00;7.32;;;13.60;99.90;;;;;;7372090;19;20044;-59
2023/07/04 00:51:50;;;;;;;18.58;7.38;;;13.50;99.90;;;;;;7377150;19;20353;-59
2023/07/04 00:54:19;;;;;;;19.30;7.40;;;13.50;99.90;;;;;;7372865;19;20015;-63
2023/07/04 00:56:46;;;;;;;17.50;6.85;;;13.50;99.90;;;;;;7378900;19;20489;-63
2023/07/04 00:59:12;;;;;;;17.67;7.43;;;13.50;99.90;;;;;;7377031;19;20505;-63
2023/07/04 01:01:38;;;;;;;19.02;8.02;;;13.40;99.90;;;;;;7376280;19;20086;-63
2023/07/04 01:04:04;;;;;;;18.80;7.28;;;13.40;99.90;;;;;;7379414;19;20528;-63
2023/07/04 01:06:39;;;;;;;18.02;7.45;;;13.40;99.90;;;;;;7378718;19;20057;-63
2023/07/04 01:09:08;;;;;;;12.68;6.53;;;13.40;99.90;;;;;;7376904;19;20118;-63
2023/07/04 01:11:42;;;;;;;14.50;6.38;;;13.40;99.90;;;;;;7376261;19;20098;-63
2023/07/04 01:14:21;;;;;;;14.60;7.60;;;13.40;99.90;;;;;;7378004;19;20804;-63
2023/07/04 01:16:47;;;;;;;15.43;6.88;;;13.40;99.90;;;;;;7377268;19;20050;-63
2023/07/04 01:19:35;;;;;;;13.80;6.10;;;13.40;99.90;;;;;;7379443;19;20598;-63
2023/07/04 01:22:27;;;;;;;19.60;6.53;;;13.30;99.90;;;;;;7376671;19;20035;-63
2023/07/04 01:25:21;;;;;;;13.07;5.65;;;13.30;99.90;;;;;;7374325;19;20019;-63
2023/07/04 01:27:49;;;;;;;15.65;5.82;;;13.30;99.90;;;;;;7371174;19;20018;-63
2023/07/04 01:30:17;;;;;;;13.18;5.72;;;13.20;99.90;;;;;;7377461;19;20007;-63
2023/07/04 01:32:45;;;;;;;19.42;6.40;;;13.20;99.90;;;;;;7372804;19;20014;-63
2023/07/04 01:35:13;;;;;;;13.57;5.55;;;13.20;99.90;;;;;;7374858;19;20030;-63
2023/07/04 01:37:40;;;;;;;11.80;5.25;;;13.30;99.90;;;;;;7366874;19;20015;-64
2023/07/04 01:40:09;;;;;;;16.98;5.60;;;13.30;99.90;;;;;;7369470;19;20362;-59
2023/07/04 01:42:36;;;;;;;16.80;5.50;;;13.40;99.90;;;;;;7368359;19;20022;-59
2023/07/04 01:45:05;;;;;;;15.82;5.68;;;13.30;99.90;;;;;;7374040;19;20784;-63
2023/07/04 01:47:33;;;;;;;14.85;5.22;;;13.40;99.90;;;;;;7364343;19;20023;-63
2023/07/04 01:50:00;;;;;;;15.45;5.32;;;13.40;99.90;;;;;;7370779;19;20021;-63
2023/07/04 01:52:31;;;;;;;14.15;5.38;;;13.40;99.90;;;;;;7370057;19;20610;-62
2023/07/04 01:54:57;;;;;;;12.43;5.88;;;13.30;99.90;;;;;;7374852;19;20074;-63
2023/07/04 01:57:24;;;;;;;13.60;5.70;;;13.30;99.90;;;;;;7371044;19;20014;-63
2023/07/04 01:59:51;;;;;;;9.30;4.75;;;13.20;99.90;;;;;;7373503;19;20023;-63
2023/07/04 02:02:18;;;;;;;15.70;6.07;;;13.20;99.90;;;;;;7372203;19;20026;-63
2023/07/04 02:04:44;;;;;;;12.90;5.80;;;13.10;99.90;;;;;;7368018;19;20022;-63
2023/07/04 02:07:13;;;;;;;13.45;5.95;;;13.00;99.90;;;;;;7368461;19;20381;-58
2023/07/04 02:09:41;;;;;;;12.93;6.00;;;12.90;99.90;;;;;;7371700;19;20030;-63
2023/07/04 02:12:09;;;;;;;16.92;6.03;;;12.90;99.90;;;;;;7372469;19;20442;-63
2023/07/04 02:14:35;;;;;;;15.85;6.50;;;12.80;99.90;;;;;;7375410;19;20029;-63
2023/07/04 02:17:02;;;;;;;15.80;6.47;;;12.80;99.90;;;;;;7373341;19;20063;-63
2023/07/04 02:19:28;;;;;;;16.30;5.68;;;12.80;99.90;;;;;;7372472;19;21399;-64
2023/07/04 02:21:54;;;;;;;14.30;6.10;;;12.80;99.90;;;;;;7369554;19;20026;-59
2023/07/04 02:24:21;;;;;;;12.95;7.32;;;12.80;99.90;;;;;;7372625;19;20615;-59
2023/07/04 02:26:49;;;;;;;17.23;6.85;;;12.80;99.90;;;;;;7371850;19;20820;-59
2023/07/04 02:29:16;;;;;;;14.52;6.45;;;12.80;99.90;;;;;;7373478;19;20022;-64
2023/07/04 02:31:43;;;;;;;17.38;6.72;;;12.80;99.90;;;;;;7370910;19;20453;-63
2023/07/04 02:34:09;;;;;;;15.05;5.93;;;12.80;99.90;;;;;;7367760;19;20026;-64
2023/07/04 02:36:36;;;;;;;13.65;6.65;;;12.80;99.90;;;;;;7371039;19;20019;-63
2023/07/04 02:39:03;;;;;;;13.60;5.57;;;12.90;99.90;;;;;;7370587;19;20010;-63
2023/07/04 02:41:29;;;;;;;14.57;5.68;;;12.80;99.90;;;;;;7370765;19;20869;-63
2023/07/04 02:43:57;;;;;;;16.10;6.55;;;12.80;99.90;;;;;;7372242;19;20755;-59
2023/07/04 02:46:24;;;;;;;10.68;5.75;;;12.80;99.90;;;;;;7369038;19;20041;-59
2023/07/04 02:48:55;;;;;;;15.07;5.50;;;12.80;99.90;;;;;;7371903;19;20405;-64
2023/07/04 02:51:22;;;;;;;15.98;5.68;;;12.80;99.90;;;;;;7372132;19;20031;-64
2023/07/04 02:53:49;;;;;;;12.18;5.03;;;12.80;99.90;;;;;;7370173;19;20020;-64
2023/07/04 02:56:17;;;;;;;13.48;5.55;;;12.80;99.90;;;;;;7373914;19;20041;-63
2023/07/04 02:58:43;;;;;;;12.90;5.30;;;12.80;99.90;;;;;;7365907;19;20018;-64
2023/07/04 03:01:10;;;;;;;13.35;5.72;;;12.70;99.90;;;;;;7368160;19;20027;-63
2023/07/04 03:03:36;;;;;;;11.40;6.32;;;12.80;99.90;;;;;;7373393;19;21201;-63
2023/07/04 03:06:05;;;;;;;15.82;6.28;;;12.80;99.90;;;;;;7374015;19;20022;-59
2023/07/04 03:08:32;;;;;;;10.82;6.30;;;12.80;99.90;;;;;;7371354;19;20014;-59
2023/07/04 03:10:59;;;;;;;21.17;6.60;;;12.70;99.90;;;;;;7377843;19;20540;-59
2023/07/04 03:13:28;;;;;;;12.65;5.78;;;12.80;99.90;;;;;;7380904;19;20585;-63
2023/07/04 03:15:55;;;;;;;14.13;6.10;;;12.70;99.90;;;;;;7378511;19;20014;-59
2023/07/04 03:18:22;;;;;;;15.73;7.05;;;12.70;99.90;;;;;;7379221;19;20740;-59
2023/07/04 03:20:50;;;;;;;14.35;6.38;;;12.70;99.90;;;;;;7377781;19;20022;-59
2023/07/04 03:23:17;;;;;;;16.10;6.75;;;12.60;99.90;;;;;;7375600;19;20501;-59
2023/07/04 03:25:44;;;;;;;16.90;6.63;;;12.60;99.90;;;;;;7378019;19;20014;-59
2023/07/04 03:28:12;;;;;;;16.05;6.88;;;12.60;99.90;;;;;;7375662;19;20036;-63
2023/07/04 03:30:38;;;;;;;14.80;6.68;;;12.60;99.90;;;;;;7381485;19;20840;-63
2023/07/04 03:33:09;;;;;;;17.08;7.63;;;12.60;99.90;;;;;;7381061;19;20086;-63
2023/07/04 03:35:40;;;;;;;14.73;6.90;;;12.60;99.90;;;;;;7377313;19;20014;-63
2023/07/04 03:38:07;;;;;;;19.98;7.68;;;12.60;99.90;;;;;;7377688;19;20022;-63
2023/07/04 03:40:33;;;;;;;17.08;7.13;;;12.60;99.90;;;;;;7378289;19;20019;-63
2023/07/04 03:42:59;;;;;;;15.90;6.10;;;12.60;99.90;;;;;;7377797;19;20018;-63
2023/07/04 03:45:25;;;;;;;20.02;7.05;;;12.60;99.90;;;;;;7378512;19;20051;-63
2023/07/04 03:47:53;;;;;;;14.70;7.40;;;12.60;99.90;;;;;;7371034;19;20019;-63
2023/07/04 03:50:19;;;;;;;22.30;8.10;;;12.60;99.90;;;;;;7375167;19;20772;-63
2023/07/04 03:52:45;;;;;;;21.63;8.50;;;12.60;99.90;;;;;;7376589;19;20026;-63
2023/07/04 03:55:13;;;;;;;19.35;7.43;;;12.70;99.90;;;;;;7373785;19;20018;-63
2023/07/04 03:57:40;;;;;;;25.60;7.22;;;12.70;99.90;;;;;;7374495;19;20481;-63
2023/07/04 04:00:09;;;;;;;20.08;7.93;;;12.70;99.90;;;;;;7376840;19;20022;-63
2023/07/04 04:02:56;;;;;;;17.10;8.10;;;12.70;99.90;;;;;;7378687;19;20342;-63
2023/07/04 04:05:23;;;;;;;18.63;7.53;;;12.70;99.90;;;;;;7373815;19;20028;-63
2023/07/04 04:07:49;;;;;;;16.02;7.43;;;12.70;99.90;;;;;;7373178;19;20026;-63
2023/07/04 04:10:16;;;;;;;16.77;7.55;;;12.70;99.90;;;;;;7378213;19;20022;-63
2023/07/04 04:12:43;;;;;;;16.73;8.48;;;12.70;99.90;;;;;;7370351;19;20019;-63
2023/07/04 04:15:09;;;;;;;20.15;8.10;;;12.80;99.90;;;;;;7376012;19;20728;-63
2023/07/04 04:17:36;;;;;;;13.18;8.35;;;12.80;99.90;;;;;;7379355;19;20018;-63
2023/07/04 04:20:06;;;;;;;16.60;8.27;;;12.80;99.90;;;;;;7376894;19;20074;-59
2023/07/04 04:22:33;;;;;;;17.10;7.88;;;12.80;99.90;;;;;;7374843;19;20021;-59
2023/07/04 04:24:59;;;;;;;16.70;7.28;;;12.90;99.90;;;;;;7376158;19;20022;-58
2023/07/04 04:27:30;;;;;;;14.10;6.97;;;12.90;99.90;;;;;;7374911;19;20023;-59
2023/07/04 04:29:57;;;;;;;19.10;8.03;;;12.90;99.90;;;;;;7376056;19;20045;-63
2023/07/04 04:32:23;;;;;;;14.05;6.93;;;13.00;99.90;;;;;;7376132;19;20018;-63
2023/07/04 04:34:49;;;;;;;15.40;6.10;;;13.00;99.90;;;;;;7377348;19;20514;-63
2023/07/04 04:37:16;;;;;;;14.75;6.05;;;13.10;99.90;;;;;;7376001;19;20082;-63
2023/07/04 04:39:43;;;;;;;14.98;6.20;;;13.10;99.90;;;;;;7376322;19;20112;-63
2023/07/04 04:42:14;;;;;;;16.75;6.65;;;13.20;99.90;;;;;;7376844;19;20933;-63
2023/07/04 04:44:41;;;;;;;14.43;6.47;;;13.20;99.90;;;;;;7375027;19;20045;-63
2023/07/04 04:47:08;;;;;;;12.75;5.97;;;13.20;99.90;;;;;;7373981;19;20018;-63
2023/07/04 04:49:51;;;;;;;12.68;6.20;;;13.30;99.90;;;;;;7376998;19;20014;-64
2023/07/04 04:52:22;;;;;;;16.45;6.18;;;13.30;99.90;;;;;;7380362;19;20014;-63
2023/07/04 04:54:48;;;;;;;14.82;5.47;;;13.40;99.90;;;;;;7375357;19;20036;-63
2023/07/04 04:57:16;;;;;;;12.73;5.28;;;13.40;99.90;;;;;;7378438;19;20750;-63
2023/07/04 04:59:43;;;;;;;11.02;5.28;;;13.40;99.90;;;;;;7375564;19;20039;-70
2023/07/04 05:02:09;;;;;;;12.75;4.68;;;13.50;99.90;;;;;;7374349;19;20031;-65
2023/07/04 05:04:36;;;;;;;11.40;4.45;;;13.50;99.90;;;;;;7378327;19;20078;-65
2023/07/04 05:07:02;;;;;;;13.15;4.05;;;13.50;99.90;;;;;;7370891;19;20014;-65
2023/07/04 05:09:29;;;;;;;11.80;4.72;;;13.50;99.90;;;;;;7374341;19;20026;-65
2023/07/04 05:11:55;;;;;;;10.15;4.65;;;13.60;99.90;;;;;;7374750;19;20055;-59
2023/07/04 05:14:21;;;;;;;9.50;4.90;;;13.60;99.90;;;;;;7374854;19;20043;-59
2023/07/04 05:16:47;;;;;;;13.00;5.43;;;13.60;99.90;;;;;;7373739;19;20067;-59
2023/07/04 05:19:14;;;;;;;8.90;3.75;;;13.60;99.90;;;;;;7368495;19;20019;-59
2023/07/04 05:21:41;;;;;;;9.57;3.85;;;13.70;99.90;;;;;;7371620;19;20018;-59
2023/07/04 05:24:07;;;;;;;7.93;3.38;;;13.60;99.90;;;;;;7371847;19;20019;-65
2023/07/04 05:26:33;;;;;;;7.85;3.30;;;13.70;99.90;;;;;;7376637;19;20085;-65
2023/07/04 05:29:02;;;;;;;9.50;3.53;;;13.70;99.90;;;;;;7375950;19;20709;-65
2023/07/04 05:31:30;;;;;;;7.03;2.80;;;13.70;99.90;;;;;;7372320;19;20018;-65
2023/07/04 05:33:56;;;;;;;9.38;3.33;;;13.80;99.90;;;;;;7377057;19;20022;-65
2023/07/04 05:36:25;;;;;;;7.43;3.03;;;13.80;99.90;;;;;;7377305;19;20343;-59
2023/07/04 05:38:54;;;;;;;8.40;3.40;;;13.90;99.90;;;;;;7371047;19;20027;-59
2023/07/04 05:41:22;;;;;;;10.52;3.40;;;13.90;99.90;;;;;;7371408;19;20022;-58
2023/07/04 05:43:49;;;;;;;6.43;2.80;;;14.00;99.90;;;;;;7373355;19;20449;-59
2023/07/04 05:46:17;;;;;;;7.70;2.50;;;14.00;99.90;;;;;;7371851;19;20599;-59
2023/07/04 05:48:44;;;;;;;7.13;2.95;;;14.10;99.90;;;;;;7372281;19;20018;-59
2023/07/04 05:51:13;;;;;;;9.77;3.00;;;14.10;99.90;;;;;;7371054;19;20026;-59
2023/07/04 05:53:41;;;;;;;8.85;2.65;;;14.20;99.90;;;;;;7379923;19;20018;-65
2023/07/04 05:56:10;;;;;;;8.68;2.33;;;14.20;99.90;;;;;;7374542;19;20520;-59
2023/07/04 05:58:38;;;;;;;9.05;2.80;;;14.30;99.90;;;;;;7373495;19;20019;-65
2023/07/04 06:01:14;;;;;;;8.85;2.65;;;14.30;99.90;;;;;;7373117;19;20097;-65
2023/07/04 06:03:41;;;;;;;11.25;2.70;;;14.40;99.90;;;;;;7374835;19;20405;-65
2023/07/04 06:06:24;;;;;;;7.10;2.53;;;14.40;99.90;;;;;;7376141;19;20023;-65
2023/07/04 06:08:52;;;;;;;7.88;2.13;;;14.50;99.90;;;;;;7376356;19;20351;-65
2023/07/04 06:11:19;;;;;;;6.25;1.90;;;14.50;99.90;;;;;;7376774;19;20022;-65
2023/07/04 06:13:46;;;;;;;5.63;2.05;;;14.60;99.90;;;;;;7376048;19;20019;-64
2023/07/04 06:16:12;;;;;;;6.20;2.08;;;14.90;99.90;;;;;;7374554;19;20485;-65
2023/07/04 06:18:39;;;;;;;14.20;2.95;;;15.40;99.90;;;;;;7374564;19;20019;-65
2023/07/04 06:21:11;;;;;;;6.65;2.10;;;15.60;99.90;;;;;;7369492;19;20018;-68
2023/07/04 06:23:38;;;;;;;7.40;2.05;;;15.90;99.90;;;;;;7372328;19;20048;-65
2023/07/04 06:26:08;;;;;;;5.25;1.90;;;16.10;99.90;;;;;;7376671;19;20112;-66
2023/07/04 06:28:36;;;;;;;6.97;2.10;;;16.20;99.90;;;;;;7374180;19;20018;-65
2023/07/04 06:31:06;;;;;;;8.38;2.78;;;16.30;99.90;;;;;;7373268;19;20496;-65
2023/07/04 06:33:34;;;;;;;8.90;2.37;;;16.20;99.90;;;;;;7377100;19;20465;-65
2023/07/04 06:36:01;;;;;;;9.30;2.20;;;16.10;99.90;;;;;;7372347;19;20278;-65
2023/07/04 06:38:27;;;;;;;7.65;2.00;;;16.10;99.90;;;;;;7381097;19;20028;-65
2023/07/04 06:40:59;;;;;;;5.95;2.10;;;16.20;99.90;;;;;;7379478;19;20049;-65
2023/07/04 06:43:27;;;;;;;7.00;2.13;;;16.10;99.90;;;;;;7379471;19;20394;-66
2023/07/04 06:45:55;;;;;;;8.65;2.63;;;16.10;99.90;;;;;;7378604;19;20030;-65
2023/07/04 06:48:22;;;;;;;6.47;1.83;;;16.00;99.90;;;;;;7376495;19;20022;-66
2023/07/04 06:50:59;;;;;;;8.25;2.00;;;16.00;99.90;;;;;;7377310;19;20014;-65
2023/07/04 06:53:27;;;;;;;5.85;1.85;;;16.00;99.90;;;;;;7381880;19;20030;-65
2023/07/04 06:55:53;;;;;;;10.07;2.70;;;16.00;99.90;;;;;;7382482;19;20014;-65
2023/07/04 06:58:20;;;;;;;8.30;1.95;;;16.10;99.90;;;;;;7373883;19;20014;-65
2023/07/04 07:00:55;;;;;;;7.97;1.85;;;16.30;99.90;;;;;;7371481;19;20031;-65
2023/07/04 07:03:22;;;;;;;8.27;2.05;;;16.30;99.90;;;;;;7377930;19;20461;-65
2023/07/04 07:05:48;;;;;;;7.75;1.85;;;16.30;99.90;;;;;;7380735;19;20014;-65
2023/07/04 07:08:16;;;;;;;8.48;2.20;;;16.30;99.90;;;;;;7380786;19;20026;-65
2023/07/04 07:10:57;;;;;;;8.43;2.30;;;16.40;99.90;;;;;;7378032;19;20022;-65
2023/07/04 07:13:24;;;;;;;8.80;1.90;;;16.50;99.90;;;;;;7379969;19;20422;-66
2023/07/04 07:15:52;;;;;;;8.00;1.95;;;16.50;99.90;;;;;;7378629;19;20014;-65
2023/07/04 07:18:19;;;;;;;7.63;1.70;;;16.50;99.90;;;;;;7376189;19;20022;-64
2023/07/04 07:20:45;;;;;;;5.78;1.65;;;16.50;99.90;;;;;;7378972;19;20024;-65
2023/07/04 07:23:11;;;;;;;4.30;1.30;;;16.70;99.90;;;;;;7379009;19;20022;-64
2023/07/04 07:25:37;;;;;;;13.10;2.15;;;16.70;99.90;;;;;;7382054;19;20041;-64
2023/07/04 07:28:04;;;;;;;9.45;4.28;;;16.70;99.90;;;;;;7376551;19;20054;-59
2023/07/04 07:30:30;;;;;;;7.63;2.53;;;16.80;99.90;;;;;;7377011;19;20023;-59
2023/07/04 07:32:56;;;;;;;6.28;2.03;;;16.80;99.90;;;;;;7375931;19;20026;-65
2023/07/04 07:35:22;;;;;;;4.50;1.80;;;16.80;99.90;;;;;;7374775;19;20051;-65
2023/07/04 07:37:49;;;;;;;7.93;2.00;;;16.90;99.90;;;;;;7375057;19;20022;-65
2023/07/04 07:40:15;;;;;;;7.03;2.10;;;16.90;99.90;;;;;;7373032;19;20025;-64
2023/07/04 07:42:42;;;;;;;7.40;1.88;;;17.00;99.90;;;;;;7378785;19;20029;-71
2023/07/04 07:45:08;;;;;;;4.80;1.80;;;17.20;99.90;;;;;;7378276;19;20486;-69
2023/07/04 07:47:34;;;;;;;7.57;2.17;;;17.30;99.90;;;;;;7378309;19;20026;-65
2023/07/04 07:50:01;;;;;;;8.00;1.92;;;17.50;99.90;;;;;;7379219;19;20031;-65
2023/07/04 07:52:27;;;;;;;6.15;1.90;;;17.80;99.90;;;;;;7376491;19;20454;-59
2023/07/04 07:54:53;;;;;;;7.10;1.95;;;17.80;99.90;;;;;;7378887;19;20031;-59
2023/07/04 07:57:20;;;;;;;8.73;1.73;;;17.80;99.90;;;;;;7380061;19;20018;-59
2023/07/04 07:59:49;;;;;;;6.25;1.63;;;17.80;99.90;;;;;;7377100;19;20058;-59
2023/07/04 08:02:16;;;;;;;8.82;1.85;;;17.80;99.90;;;;;;7376119;19;20865;-59
2023/07/04 08:04:42;;;;;;;6.95;1.88;;;17.70;99.90;;;;;;7378330;19;20340;-59
2023/07/04 08:07:09;;;;;;;10.27;2.35;;;17.90;99.90;;;;;;7378220;19;20779;-59
2023/07/04 08:09:36;;;;;;;5.25;1.50;;;18.40;99.90;;;;;;7379147;19;20038;-59
2023/07/04 08:12:02;;;;;;;7.40;1.95;;;18.30;99.90;;;;;;7376026;19;20069;-59
2023/07/04 08:14:29;;;;;;;7.10;1.98;;;18.40;99.90;;;;;;7375767;19;20550;-59
2023/07/04 08:16:55;;;;;;;8.70;2.35;;;18.70;99.90;;;;;;7377516;19;20015;-59
2023/07/04 08:19:23;;;;;;;7.20;1.77;;;18.70;99.90;;;;;;7375936;19;20014;-59
2023/07/04 08:21:51;;;;;;;7.32;2.08;;;18.50;99.90;;;;;;7372039;19;20657;-59
2023/07/04 08:24:17;;;;;;;8.18;2.22;;;18.40;99.90;;;;;;7374770;19;20509;-59
2023/07/04 08:26:46;;;;;;;7.97;2.05;;;18.20;99.90;;;;;;7375785;19;20018;-59
2023/07/04 08:29:13;;;;;;;8.02;2.42;;;17.90;99.90;;;;;;7372461;19;20018;-59
2023/07/04 08:31:39;;;;;;;9.18;2.03;;;17.90;99.90;;;;;;7372610;19;20545;-59
2023/07/04 08:34:06;;;;;;;10.13;2.25;;;17.90;99.90;;;;;;7375882;19;20019;-59
2023/07/04 08:36:33;;;;;;;8.18;2.03;;;18.10;99.90;;;;;;7374839;19;20028;-59
2023/07/04 08:39:00;;;;;;;13.25;2.97;;;18.20;99.90;;;;;;7375125;19;20082;-59
2023/07/04 08:41:26;;;;;;;8.18;2.10;;;18.30;99.90;;;;;;7375826;19;20074;-59
2023/07/04 08:44:03;;;;;;;6.25;2.00;;;18.40;99.90;;;;;;7379467;19;20035;-59
2023/07/04 08:46:41;;;;;;;9.00;2.03;;;18.30;99.90;;;;;;7378602;19;20412;-59
2023/07/04 08:49:24;;;;;;;7.90;2.05;;;18.20;99.90;;;;;;7379177;19;20029;-59
2023/07/04 08:52:12;;;;;;;10.27;2.10;;;18.30;99.90;;;;;;7373644;19;20022;-59
2023/07/04 08:54:39;;;;;;;7.68;2.08;;;18.00;99.90;;;;;;7375128;19;20041;-60
2023/07/04 08:57:38;;;;;;;10.55;2.30;;;17.80;99.90;;;;;;7375205;19;20780;-59
2023/07/04 09:00:08;;;;;;;10.52;2.65;;;17.90;99.90;;;;;;7372630;19;20041;-58
2023/07/04 09:02:54;;;;;;;13.40;2.72;;;17.90;99.90;;;;;;7373256;19;20048;-58
2023/07/04 09:05:39;;;;;;;10.80;2.88;;;18.00;99.90;;;;;;7376437;19;20018;-59
2023/07/04 09:08:27;;;;;;;9.93;2.58;;;18.10;99.90;;;;;;7374912;19;20031;-58
2023/07/04 09:10:59;;;;;;;7.13;2.10;;;18.10;99.90;;;;;;7377836;19;20389;-59
2023/07/04 09:13:44;;;;;;;10.77;3.33;;;18.10;99.90;;;;;;7375599;19;20026;-70
2023/07/04 09:16:27;;;;;;;14.20;2.83;;;18.10;99.90;;;;;;7379175;19;20023;-66
2023/07/04 09:19:23;;;;;;;11.18;3.13;;;18.10;99.90;;;;;;7375585;19;20092;-66
2023/07/04 09:21:51;;;;;;;8.02;2.70;;;18.10;99.90;;;;;;7378652;19;20017;-66
2023/07/04 09:24:17;;;;;;;9.85;2.78;;;18.00;99.90;;;;;;7378704;19;20022;-66
2023/07/04 09:26:46;;;;;;;10.63;2.75;;;18.00;99.90;;;;;;7377824;19;20691;-66
2023/07/04 09:29:17;;;;;;;13.18;3.08;;;18.00;99.90;;;;;;7373965;19;20037;-66
2023/07/04 09:31:46;;;;;;;11.30;2.92;;;17.90;99.90;;;;;;7377252;19;20030;-66
2023/07/04 09:34:36;;;;;;;8.55;2.25;;;17.90;99.90;;;;;;7377111;19;20575;-60
2023/07/04 09:37:10;;;;;;;14.80;2.80;;;17.90;99.90;;;;;;7374690;19;20821;-59
2023/07/04 09:39:50;;;;;;;8.07;2.50;;;18.10;99.90;;;;;;7377853;19;20078;-66
2023/07/04 09:42:42;;;;;;;9.82;2.33;;;18.30;99.90;;;;;;7376219;19;20022;-66
2023/07/04 09:45:11;;;;;;;11.65;2.63;;;18.40;99.90;;;;;;7378111;19;20592;-67
2023/07/04 09:47:44;;;;;;;7.63;2.28;;;18.90;99.90;;;;;;7376630;19;20048;-66
2023/07/04 09:50:23;;;;;;;8.38;2.45;;;19.30;99.90;;;;;;7379548;19;20010;-67
2023/07/04 09:53:03;;;;;;;11.93;2.95;;;20.00;99.90;;;;;;7380820;19;20049;-67
2023/07/04 09:55:31;;;;;;;13.45;2.53;;;19.80;99.90;;;;;;7377233;19;20028;-67
2023/07/04 09:58:21;;;;;;;10.25;2.90;;;19.90;99.90;;;;;;7379491;19;20123;-67
2023/07/04 10:01:13;;;;;;;9.55;2.70;;;20.30;99.90;;;;;;7381559;19;20018;-67
2023/07/04 10:03:42;;;;;;;11.32;3.05;;;20.60;99.90;;;;;;7376217;19;20029;-63
2023/07/04 10:06:10;;;;;;;6.95;1.90;;;20.90;99.90;;;;;;7372957;19;20022;-60
2023/07/04 10:08:56;;;;;;;7.93;2.40;;;21.50;99.90;;;;;;7372150;19;20018;-60
2023/07/04 10:11:32;;;;;;;11.32;2.60;;;21.10;99.90;;;;;;7380540;19;20472;-60
2023/07/04 10:14:08;;;;;;;6.97;2.33;;;21.60;99.90;;;;;;7381200;19;20783;-59
2023/07/04 10:16:36;;;;;;;6.55;2.08;;;21.10;99.90;;;;;;7380289;19;20018;-59
2023/07/04 10:19:12;;;;;;;10.85;2.40;;;21.40;99.90;;;;;;7379550;19;20014;-59
2023/07/04 10:21:50;;;;;;;13.40;3.05;;;20.90;99.90;;;;;;7377543;19;20081;-68
2023/07/04 10:24:23;;;;;;;10.18;2.60;;;20.40;99.90;;;;;;7381267;19;20024;-69
2023/07/04 10:26:54;;;;;;;10.93;2.88;;;19.90;99.90;;;;;;7381923;19;20089;-68
2023/07/04 10:29:48;;;;;;;11.55;2.65;;;19.80;99.90;;;;;;7380714;19;20035;-69
2023/07/04 10:32:16;;;;;;;10.93;2.83;;;19.70;99.90;;;;;;7377710;19;20014;-67
2023/07/04 10:34:46;;;;;;;7.10;2.50;;;19.50;99.90;;;;;;7380724;19;20366;-71
2023/07/04 10:37:23;;;;;;;10.57;2.53;;;20.10;99.90;;;;;;7379224;19;20022;-69
2023/07/04 10:39:57;;;;;;;7.53;2.08;;;20.30;99.90;;;;;;7377635;19;20101;-69
2023/07/04 10:42:48;;;;;;;8.27;2.58;;;20.60;99.90;;;;;;7378646;19;20021;-68
2023/07/04 10:45:17;;;;;;;11.27;2.70;;;20.70;99.90;;;;;;7384408;19;20085;-60
2023/07/04 10:47:45;;;;;;;12.32;2.85;;;20.30;99.90;;;;;;7381573;19;20015;-68
2023/07/04 10:50:36;;;;;;;11.00;2.53;;;20.10;99.90;;;;;;7379044;19;20010;-60
2023/07/04 10:53:03;;;;;;;8.52;2.95;;;19.70;99.90;;;;;;7380775;19;20018;-60
2023/07/04 10:55:36;;;;;;;12.23;2.70;;;19.50;99.90;;;;;;7381996;19;20014;-68
2023/07/04 10:58:20;;;;;;;9.90;2.80;;;20.10;99.90;;;;;;7373979;19;20025;-60
2023/07/04 11:00:54;;;;;;;9.57;2.95;;;20.20;99.90;;;;;;7381385;19;20022;-60
2023/07/04 11:03:45;;;;;;;9.63;3.25;;;20.00;99.90;;;;;;7380975;19;20977;-60
2023/07/04 11:06:23;;;;;;;10.93;2.80;;;20.90;99.90;;;;;;7376592;19;20038;-59
2023/07/04 11:08:50;;;;;;;13.70;3.17;;;21.10;99.90;;;;;;7376874;19;20017;-67
2023/07/04 11:11:28;;;;;;;10.15;3.17;;;21.80;99.90;;;;;;7378696;19;20025;-68
2023/07/04 11:13:58;;;;;;;7.47;2.45;;;22.20;99.90;;;;;;7381221;19;20019;-67
2023/07/04 11:16:29;;;;;;;7.90;2.40;;;22.40;99.90;;;;;;7382735;19;20477;-67
2023/07/04 11:19:19;;;;;;;7.18;1.95;;;22.00;95.50;;;;;;7376230;19;20019;-66
2023/07/04 11:22:00;;;;;;;11.45;2.65;;;21.20;90.00;;;;;;7378568;19;20022;-67
2023/07/04 11:24:38;;;;;;;9.15;2.10;;;20.90;89.30;;;;;;7381168;19;20098;-67
2023/07/04 11:27:29;;;;;;;8.50;2.25;;;20.70;89.90;;;;;;7377059;19;20018;-59
2023/07/04 11:29:58;;;;;;;9.52;1.83;;;20.50;90.50;;;;;;7380943;19;20016;-66
2023/07/04 11:32:37;;;;;;;7.93;1.90;;;20.70;91.00;;;;;;7382907;19;20022;-66
2023/07/04 11:35:09;;;;;;;6.32;1.80;;;21.00;88.10;;;;;;7381935;19;20031;-67
2023/07/04 11:38:05;;;;;;;6.63;2.17;;;20.70;86.40;;;;;;7378741;19;20039;-67
2023/07/04 11:40:46;;;;;;;6.55;2.08;;;20.80;88.40;;;;;;7378847;19;20018;-66
2023/07/04 11:43:27;;;;;;;10.43;1.93;;;20.80;84.30;;;;;;7381415;19;20017;-67
2023/07/04 11:45:55;;;;;;;8.40;2.40;;;20.80;80.70;;;;;;7379368;19;20033;-67
2023/07/04 11:48:25;;;;;;;7.70;2.00;;;21.60;82.50;;;;;;7373542;19;20023;-60
2023/07/04 11:51:00;;;;;;;7.10;1.85;;;21.80;79.30;;;;;;7379720;19;20026;-70
2023/07/04 11:53:38;;;;;;;10.63;2.10;;;21.80;79.50;;;;;;7381483;19;20970;-69
2023/07/04 11:56:17;;;;;;;8.18;2.05;;;22.00;81.80;;;;;;7382476;19;20018;-67
2023/07/04 11:58:45;;;;;;;10.77;5.05;;;22.30;83.40;;;;;;7380715;19;20037;-67
2023/07/04 12:01:14;;;;;;;7.65;2.50;;;22.50;81.80;;;;;;7378121;19;20018;-60
2023/07/04 12:03:55;;;;;;;10.95;2.30;;;22.50;78.50;;;;;;7380334;19;20023;-67
2023/07/04 12:06:48;;;;;;;9.95;2.38;;;22.80;79.20;;;;;;7377591;19;20499;-66
2023/07/04 12:09:22;;;;;;;12.43;3.20;;;22.60;79.60;;;;;;7377683;19;20022;-66
2023/07/04 12:11:49;;;;;;;8.80;2.55;;;22.90;78.20;;;;;;7377521;19;20025;-66
2023/07/04 12:14:17;;;;;;;10.32;2.40;;;22.80;78.80;;;;;;7378419;19;20038;-66
2023/07/04 12:16:46;;;;;;;8.95;2.60;;;22.70;77.40;;;;;;7379524;19;20018;-72
2023/07/04 12:19:23;;;;;;;8.02;2.38;;;22.80;79.80;;;;;;7375236;19;20870;-65
2023/07/04 12:21:51;;;;;;;9.95;3.00;;;23.10;82.00;;;;;;7367250;19;20022;-60
2023/07/04 12:24:22;;;;;;;9.95;2.60;;;23.20;83.20;;;;;;7377055;19;20145;-67
2023/07/04 12:26:57;;;;;;;15.07;3.25;;;22.80;83.50;;;;;;7374500;19;20127;-66
2023/07/04 12:29:24;;;;;;;12.13;2.92;;;22.60;82.90;;;;;;7377036;19;20641;-66
2023/07/04 12:32:09;;;;;;;9.90;2.42;;;22.30;83.40;;;;;;7377902;19;20470;-66
2023/07/04 12:34:35;;;;;;;11.32;2.60;;;22.30;81.60;;;;;;7371383;19;20044;-68
2023/07/04 12:37:05;;;;;;;7.03;1.85;;;22.40;78.60;;;;;;7378040;19;20022;-66
2023/07/04 12:39:42;;;;;;;6.63;2.55;;;23.00;78.10;;;;;;7368255;19;20015;-66
2023/07/04 12:42:17;;;;;;;7.78;1.80;;;23.30;73.20;;;;;;7375933;19;20018;-68
2023/07/04 12:44:43;;;;;;;7.75;2.65;;;23.10;70.90;;;;;;7373439;19;20015;-61
2023/07/04 12:47:13;;;;;;;8.70;1.90;;;23.40;71.20;;;;;;7373358;19;20014;-60
2023/07/04 12:49:41;;;;;;;4.90;1.45;;;23.70;68.50;;;;;;7374192;19;20140;-60
2023/07/04 12:52:08;;;;;;;5.70;2.13;;;23.90;66.60;;;;;;7372258;19;20018;-59
2023/07/04 12:54:35;;;;;;;8.63;2.20;;;23.50;64.80;;;;;;7368823;19;20026;-60
2023/07/04 12:57:02;;;;;;;10.77;2.53;;;23.20;64.90;;;;;;7372042;19;20450;-61
2023/07/04 12:59:32;;;;;;;6.60;1.83;;;23.60;66.00;;;;;;7370893;19;20026;-60